createdAt,value
2023-03-02T00:05:11.626Z,26.52
2023-03-02T00:08:13.598Z,26.33
2023-03-02T00:11:14.612Z,26.17
2023-03-02T00:13:55.171Z,27.08
2023-03-02T00:16:22.076Z,29.23
2023-03-02T00:18:49.083Z,30.45
2023-03-02T00:21:36.607Z,30.10
2023-03-02T00:24:17.282Z,30.58
2023-03-02T00:26:44.284Z,27.13
2023-03-02T00:29:11.876Z,32.60
2023-03-02T00:31:38.929Z,33.58
2023-03-02T00:34:05.876Z,29.63
2023-03-02T00:36:32.886Z,31.23
2023-03-02T00:38:59.768Z,32.42
2023-03-02T00:41:46.589Z,30.15
2023-03-02T00:44:27.569Z,30.50
2023-03-02T00:46:54.754Z,33.22
2023-03-02T00:49:22.023Z,34.88
2023-03-02T00:51:49.079Z,31.58
2023-03-02T00:54:16.011Z,32.10
2023-03-02T00:57:02.651Z,35.78
2023-03-02T00:59:43.165Z,29.75
2023-03-02T01:02:29.442Z,31.98
2023-03-02T01:04:56.747Z,33.08
2023-03-02T01:07:26.296Z,31.50
2023-03-02T01:09:54.077Z,34.53
2023-03-02T01:12:21.044Z,31.27
2023-03-02T01:14:50.823Z,33.53
2023-03-02T01:17:19.124Z,32.75
2023-03-02T01:19:45.966Z,32.45
2023-03-02T01:33:31.676Z,29.48
2023-03-02T01:36:32.961Z,31.67
2023-03-02T01:39:33.641Z,29.98
2023-03-02T01:42:34.677Z,30.88
2023-03-02T01:45:49.046Z,30.10
2023-03-02T01:48:27.249Z,28.80
2023-03-02T01:51:16.771Z,33.28
2023-03-02T01:54:23.647Z,30.75
2023-03-02T01:57:10.374Z,32.05
2023-03-02T01:59:41.329Z,31.77
2023-03-02T02:02:10.812Z,28.45
2023-03-02T02:04:42.931Z,32.53
2023-03-02T02:07:10.081Z,30.65
2023-03-02T02:09:41.283Z,32.33
2023-03-02T02:12:14.006Z,31.58
2023-03-02T02:14:42.171Z,31.65
2023-03-02T02:17:09.522Z,31.80
2023-03-02T02:20:11.004Z,33.65
2023-03-02T02:23:24.516Z,31.75
2023-03-02T02:26:01.946Z,32.13
2023-03-02T02:28:35.760Z,30.90
2023-03-02T02:31:36.743Z,35.38
2023-03-02T02:34:22.622Z,33.03
2023-03-02T02:39:29.732Z,29.92
2023-03-02T02:42:21.681Z,30.92
2023-03-02T02:45:37.730Z,28.90
2023-03-02T02:48:24.306Z,33.40
2023-03-02T02:51:00.569Z,33.78
2023-03-02T02:53:33.121Z,29.42
2023-03-02T02:56:00.872Z,32.67
2023-03-02T02:58:36.009Z,34.53
2023-03-02T03:01:03.733Z,31.98
2023-03-02T03:03:34.577Z,33.45
2023-03-02T03:06:13.781Z,33.47
2023-03-02T03:08:43.734Z,33.97
2023-03-02T03:11:19.509Z,32.22
2023-03-02T03:13:47.048Z,34.30
2023-03-02T03:16:16.140Z,33.85
2023-03-02T03:18:47.092Z,32.60
2023-03-02T03:21:34.716Z,34.70
2023-03-02T03:24:15.383Z,33.90
2023-03-02T03:26:42.575Z,35.55
2023-03-02T03:29:31.737Z,35.33
2023-03-02T03:32:14.480Z,31.27
2023-03-02T03:34:41.904Z,33.05
2023-03-02T03:37:30.169Z,34.47
2023-03-02T03:39:57.068Z,38.22
2023-03-02T03:42:44.712Z,35.83
2023-03-02T03:45:25.413Z,34.55
2023-03-02T03:47:52.482Z,38.42
2023-03-02T03:50:19.660Z,39.35
2023-03-02T03:53:06.720Z,36.20
2023-03-02T03:56:07.712Z,33.60
2023-03-02T03:58:48.260Z,36.17
2023-03-02T04:01:41.834Z,35.13
2023-03-02T04:04:46.708Z,33.80
2023-03-02T04:07:27.314Z,31.23
2023-03-02T04:10:03.384Z,33.40
2023-03-02T04:12:35.069Z,34.67
2023-03-02T04:15:03.351Z,38.55
2023-03-02T04:17:31.042Z,39.95
2023-03-02T04:19:58.760Z,38.75
2023-03-02T04:22:45.724Z,39.25
2023-03-02T04:25:29.011Z,38.75
2023-03-02T04:28:07.505Z,40.55
2023-03-02T04:30:37.693Z,37.42
2023-03-02T04:33:04.700Z,38.85
2023-03-02T04:35:32.971Z,38.92
2023-03-02T04:38:01.083Z,43.90
2023-03-02T04:40:27.980Z,36.60
2023-03-02T04:43:14.766Z,40.78
2023-03-02T04:45:55.422Z,34.63
2023-03-02T04:48:22.990Z,37.55
2023-03-02T04:50:50.832Z,38.90
2023-03-02T04:53:17.769Z,38.50
2023-03-02T04:55:44.621Z,38.80
2023-03-02T04:58:11.528Z,42.15
2023-03-02T05:00:58.769Z,40.28
2023-03-02T05:04:01.784Z,38.15
2023-03-02T05:06:43.419Z,34.73
2023-03-02T05:09:11.215Z,36.35
2023-03-02T05:11:38.535Z,37.70
2023-03-02T05:14:08.450Z,38.72
2023-03-02T05:16:37.763Z,40.40
2023-03-02T05:19:07.077Z,36.85
2023-03-02T05:21:53.752Z,36.83
2023-03-02T05:24:35.669Z,35.70
2023-03-02T05:27:02.569Z,37.97
2023-03-02T05:29:29.530Z,34.67
2023-03-02T05:31:56.728Z,36.92
2023-03-02T05:34:23.611Z,38.25
2023-03-02T05:36:50.611Z,35.40
2023-03-02T05:39:17.441Z,36.03
2023-03-02T05:42:04.769Z,37.92
2023-03-02T05:44:45.440Z,31.05
2023-03-02T05:47:12.383Z,39.70
2023-03-02T05:49:59.791Z,39.40
2023-03-02T05:52:40.444Z,34.85
2023-03-02T05:55:07.983Z,35.47
2023-03-02T05:57:35.292Z,37.83
2023-03-02T06:00:24.897Z,36.15
2023-03-02T06:03:05.567Z,33.70
2023-03-02T06:05:33.676Z,35.15
2023-03-02T06:08:01.395Z,37.45
2023-03-02T06:10:28.768Z,36.35
2023-03-02T06:12:56.407Z,36.97
2023-03-02T06:15:43.971Z,33.90
2023-03-02T06:18:44.815Z,37.28
2023-03-02T06:21:45.920Z,35.95
2023-03-02T06:24:26.551Z,35.70
2023-03-02T06:26:54.526Z,33.40
2023-03-02T06:29:22.897Z,37.00
2023-03-02T06:31:49.978Z,39.83
2023-03-02T06:34:17.128Z,36.30
2023-03-02T06:36:44.450Z,34.45
2023-03-02T06:39:15.832Z,31.00
2023-03-02T06:42:02.877Z,33.17
2023-03-02T06:44:43.315Z,32.92
2023-03-02T06:47:10.179Z,33.58
2023-03-02T06:49:37.101Z,32.97
2023-03-02T06:52:23.828Z,32.83
2023-03-02T06:55:04.959Z,32.90
2023-03-02T06:57:34.280Z,32.67
2023-03-02T07:00:25.886Z,31.08
2023-03-02T07:03:06.368Z,32.78
2023-03-02T07:05:33.444Z,34.30
2023-03-02T07:08:01.389Z,30.35
2023-03-02T07:10:49.873Z,35.85
2023-03-02T07:13:31.431Z,32.70
2023-03-02T07:15:58.390Z,31.63
2023-03-02T07:18:25.350Z,32.58
2023-03-02T07:21:12.843Z,31.50
2023-03-02T07:24:13.837Z,34.22
2023-03-02T07:26:54.407Z,31.05
2023-03-02T07:29:21.289Z,33.63
2023-03-02T07:31:48.669Z,39.10
2023-03-02T07:34:16.391Z,34.47
2023-03-02T07:36:43.300Z,34.75
2023-03-02T07:39:10.160Z,37.15
2023-03-02T07:41:57.856Z,38.50
2023-03-02T07:44:38.657Z,36.03
2023-03-02T07:47:05.749Z,39.00
2023-03-02T07:49:52.849Z,38.17
2023-03-02T07:52:34.421Z,33.45
2023-03-02T07:55:01.257Z,32.50
2023-03-02T07:57:28.129Z,37.35
2023-03-02T08:00:01.879Z,40.35
2023-03-02T08:02:47.844Z,37.08
2023-03-02T08:05:15.785Z,34.10
2023-03-02T08:07:43.984Z,37.60
2023-03-02T08:10:11.700Z,37.53
2023-03-02T08:12:38.749Z,39.03
2023-03-02T08:15:25.882Z,36.60
2023-03-02T08:18:06.456Z,36.58
2023-03-02T08:20:53.879Z,34.70
2023-03-02T08:23:47.904Z,39.38
2023-03-02T08:26:47.556Z,38.38
2023-03-02T08:29:14.459Z,38.97
2023-03-02T08:31:41.399Z,37.63
2023-03-02T08:34:08.653Z,43.22
2023-03-02T08:36:55.877Z,39.95
2023-03-02T08:39:36.500Z,36.85
2023-03-02T08:42:23.876Z,41.33
2023-03-02T08:45:25.930Z,40.83
2023-03-02T08:48:26.880Z,40.33
2023-03-02T08:51:31.196Z,40.25
2023-03-02T08:54:12.774Z,41.10
2023-03-02T08:56:40.042Z,45.60
2023-03-02T08:59:27.898Z,44.25
2023-03-02T09:02:28.891Z,44.60
2023-03-02T09:04:56.422Z,43.30
2023-03-02T09:07:23.329Z,42.17
2023-03-02T09:09:50.204Z,45.38
2023-03-02T09:12:17.116Z,41.88
2023-03-02T09:14:43.986Z,41.75
2023-03-02T09:17:13.011Z,46.05
2023-03-02T09:19:44.290Z,41.58
2023-03-02T09:22:31.880Z,41.35
2023-03-02T09:25:12.571Z,38.63
2023-03-02T09:27:39.411Z,42.85
2023-03-02T09:30:08.059Z,41.10
2023-03-02T09:32:35.390Z,38.55
2023-03-02T09:35:02.762Z,41.35
2023-03-02T09:37:49.951Z,42.47
2023-03-02T09:41:05.906Z,42.65
2023-03-02T09:44:10.077Z,41.60
2023-03-02T09:46:56.201Z,42.35
2023-03-02T09:49:35.326Z,42.35
2023-03-02T09:52:08.262Z,38.45
2023-03-02T09:54:38.059Z,43.83
2023-03-02T09:57:20.936Z,40.05
2023-03-02T10:00:19.065Z,41.90
2023-03-02T10:03:16.513Z,39.85
2023-03-02T10:05:49.442Z,41.07
2023-03-02T10:08:37.628Z,40.55
2023-03-02T10:11:16.878Z,43.15
2023-03-02T10:13:49.277Z,42.42
2023-03-02T10:16:51.342Z,40.00
2023-03-02T10:19:25.198Z,40.15
2023-03-02T10:22:21.923Z,41.83
2023-03-02T10:26:00.012Z,40.17
2023-03-02T10:28:58.253Z,38.92
2023-03-02T10:31:29.410Z,40.35
2023-03-02T10:33:57.168Z,37.47
2023-03-02T10:36:35.857Z,38.35
2023-03-02T10:39:06.946Z,39.10
2023-03-02T10:41:59.973Z,38.10
2023-03-02T10:45:05.930Z,38.15
2023-03-02T10:48:21.932Z,39.97
2023-03-02T10:51:02.565Z,38.90
2023-03-02T10:53:29.474Z,39.92
2023-03-02T10:55:56.609Z,40.08
2023-03-02T10:58:32.949Z,38.38
2023-03-02T11:01:31.969Z,40.95
2023-03-02T11:04:16.094Z,41.70
2023-03-02T11:07:03.019Z,38.05
2023-03-02T11:10:04.910Z,39.88
2023-03-02T11:12:35.366Z,39.85
2023-03-02T11:15:16.911Z,36.67
2023-03-02T11:17:46.858Z,40.40
2023-03-02T11:20:42.956Z,41.42
2023-03-02T11:23:32.816Z,39.22
2023-03-02T11:26:06.310Z,42.72
2023-03-02T11:28:48.230Z,39.35
2023-03-02T11:31:33.237Z,37.97
2023-03-02T11:34:16.935Z,40.58
2023-03-02T11:37:14.023Z,38.22
2023-03-02T11:40:13.364Z,37.88
2023-03-02T11:43:00.992Z,42.53
2023-03-02T11:46:21.556Z,41.17
2023-03-02T11:49:20.978Z,39.15
2023-03-02T11:52:22.783Z,39.30
2023-03-02T11:54:55.865Z,40.45
2023-03-02T11:57:29.046Z,38.43
2023-03-02T12:00:26.006Z,35.40
2023-03-02T12:03:15.708Z,38.72
2023-03-02T12:05:53.235Z,36.67
2023-03-02T12:08:20.141Z,35.05
2023-03-02T12:11:00.676Z,39.17
2023-03-02T12:13:31.485Z,37.38
2023-03-02T12:15:59.026Z,38.72
2023-03-02T12:18:31.982Z,40.33
2023-03-02T12:21:17.022Z,37.38
2023-03-02T12:23:59.648Z,40.10
2023-03-02T12:26:32.907Z,37.45
2023-03-02T12:29:23.721Z,38.17
2023-03-02T12:31:56.610Z,37.53
2023-03-02T12:34:43.278Z,37.85
2023-03-02T12:37:25.893Z,37.35
2023-03-02T12:40:44.019Z,37.85
2023-03-02T12:44:19.379Z,38.03
2023-03-02T12:47:04.155Z,38.75
2023-03-02T12:49:48.814Z,38.28
2023-03-02T12:52:56.357Z,39.78
2023-03-02T12:56:03.752Z,36.85
2023-03-02T12:59:05.051Z,34.17
2023-03-02T13:02:00.947Z,36.40
2023-03-02T13:04:27.850Z,36.00
2023-03-02T13:06:55.043Z,36.45
2023-03-02T13:09:22.950Z,38.22
2023-03-02T13:11:54.704Z,36.38
2023-03-02T13:14:30.997Z,36.63
2023-03-02T13:17:05.810Z,38.40
2023-03-02T13:19:33.856Z,39.17
2023-03-02T13:22:21.117Z,39.88
2023-03-02T13:25:05.490Z,35.67
2023-03-02T13:27:34.076Z,37.78
2023-03-02T13:30:22.002Z,38.88
2023-03-02T13:32:51.114Z,35.63
2023-03-02T13:35:26.717Z,34.47
2023-03-02T13:38:19.609Z,35.42
2023-03-02T13:41:10.862Z,35.92
2023-03-02T13:44:13.106Z,36.00
2023-03-02T13:47:15.106Z,34.38
2023-03-02T13:50:22.208Z,33.88
2023-03-02T13:53:07.173Z,32.78
2023-03-02T13:55:35.304Z,34.78
2023-03-02T13:58:02.741Z,34.72
2023-03-02T14:00:50.101Z,33.10
2023-03-02T14:03:51.050Z,33.97
2023-03-02T14:06:32.181Z,31.23
2023-03-02T14:08:59.267Z,32.53
2023-03-02T14:11:37.544Z,31.13
2023-03-02T14:14:07.079Z,33.20
2023-03-02T14:16:37.157Z,33.47
2023-03-02T14:19:04.108Z,34.30
2023-03-02T14:21:51.104Z,34.58
2023-03-02T14:24:31.591Z,31.63
2023-03-02T14:26:58.518Z,32.60
2023-03-02T14:29:31.217Z,32.60
2023-03-02T14:32:03.281Z,31.15
2023-03-02T14:34:30.345Z,31.98
2023-03-02T14:36:59.551Z,29.98
2023-03-02T14:40:09.101Z,33.97
2023-03-02T14:43:10.074Z,32.15
2023-03-02T14:46:11.140Z,30.25
2023-03-02T14:49:12.065Z,31.65
2023-03-02T14:52:15.444Z,33.83
2023-03-02T14:55:30.104Z,34.67
2023-03-02T14:58:27.200Z,32.05
2023-03-02T15:01:14.126Z,33.65
2023-03-02T15:03:54.845Z,32.83
2023-03-02T15:06:35.072Z,30.65
2023-03-02T15:09:02.198Z,32.30
2023-03-02T15:11:29.635Z,36.67
2023-03-02T15:13:56.945Z,35.08
2023-03-02T15:16:44.134Z,36.42
2023-03-02T15:19:45.127Z,33.63
2023-03-02T15:22:47.124Z,31.17
2023-03-02T15:25:28.522Z,29.27
2023-03-02T15:27:57.086Z,30.13
2023-03-02T15:30:25.101Z,33.20
2023-03-02T15:32:53.242Z,28.60
2023-03-02T15:35:20.745Z,30.88
2023-03-02T15:37:47.716Z,27.73
2023-03-02T15:40:14.655Z,26.77
2023-03-02T15:43:02.224Z,26.00
2023-03-02T15:45:46.431Z,29.27
2023-03-02T15:48:13.873Z,30.27
2023-03-02T15:50:40.789Z,29.65
2023-03-02T15:53:07.741Z,29.05
2023-03-02T15:55:55.134Z,27.00
2023-03-02T15:59:01.135Z,28.85
2023-03-02T16:02:06.133Z,30.60
2023-03-02T16:04:46.926Z,27.63
2023-03-02T16:07:34.204Z,29.10
2023-03-02T16:10:16.575Z,29.70
2023-03-02T16:12:43.530Z,23.92
2023-03-02T16:15:10.894Z,24.42
2023-03-02T16:17:38.340Z,24.10
2023-03-02T16:20:05.639Z,25.10
2023-03-02T16:22:53.156Z,23.45
2023-03-02T16:25:56.157Z,21.90
2023-03-02T16:28:36.910Z,19.92
2023-03-02T16:31:13.498Z,22.85
2023-03-02T16:33:41.610Z,19.48
2023-03-02T16:36:09.334Z,21.35
2023-03-02T16:38:37.325Z,22.30
2023-03-02T16:41:30.200Z,23.20
2023-03-02T16:44:32.129Z,21.33
2023-03-02T16:47:12.863Z,21.77
2023-03-02T16:49:39.762Z,20.95
2023-03-02T16:52:06.777Z,23.00
2023-03-02T16:54:54.166Z,41.45
2023-03-02T16:57:34.684Z,41.85
2023-03-02T17:00:24.193Z,60.10
2023-03-02T17:03:05.468Z,45.03
2023-03-02T17:05:53.171Z,31.30
2023-03-02T17:08:43.686Z,33.50
2023-03-02T17:11:11.042Z,33.15
2023-03-02T17:13:58.166Z,27.58
2023-03-02T17:16:59.182Z,26.60
2023-03-02T17:20:00.222Z,34.85
2023-03-02T17:23:01.161Z,45.40
2023-03-02T17:26:00.969Z,43.78
2023-03-02T17:28:48.173Z,40.83
2023-03-02T17:31:49.162Z,46.67
2023-03-02T17:34:35.919Z,37.20
2023-03-02T17:37:02.762Z,33.42
2023-03-02T17:39:29.795Z,40.95
2023-03-02T17:41:56.737Z,39.63
2023-03-02T17:44:23.706Z,43.40
2023-03-02T17:46:50.654Z,36.60
2023-03-02T17:49:17.669Z,40.22
2023-03-02T17:51:44.660Z,38.83
2023-03-02T17:54:11.816Z,37.28
2023-03-02T17:56:38.821Z,36.88
2023-03-02T17:59:26.193Z,37.28
2023-03-02T18:02:06.824Z,46.97
2023-03-02T18:04:54.294Z,39.47
2023-03-02T18:07:55.199Z,36.97
2023-03-02T18:10:56.219Z,32.97
2023-03-02T18:13:43.273Z,37.28
2023-03-02T18:16:34.021Z,34.08
2023-03-02T18:19:28.206Z,33.67
2023-03-02T18:22:29.270Z,35.85
2023-03-02T18:25:30.210Z,36.80
2023-03-02T18:28:10.894Z,37.03
2023-03-02T18:30:37.749Z,34.65
2023-03-02T18:33:04.741Z,33.65
2023-03-02T18:35:31.755Z,37.05
2023-03-02T18:38:19.339Z,36.10
2023-03-02T18:41:22.188Z,41.17
2023-03-02T18:44:06.725Z,37.28
2023-03-02T18:46:34.765Z,47.63
2023-03-02T18:49:02.034Z,40.85
2023-03-02T18:51:29.360Z,39.83
2023-03-02T18:54:16.213Z,42.15
2023-03-02T18:56:56.862Z,40.25
2023-03-02T18:59:44.228Z,40.70
2023-03-02T19:02:45.207Z,37.85
2023-03-02T19:05:46.244Z,38.40
2023-03-02T19:08:49.321Z,35.03
2023-03-02T19:11:29.862Z,35.42
2023-03-02T19:14:17.228Z,36.75
2023-03-02T19:17:18.246Z,37.15
2023-03-02T19:19:58.843Z,35.47
2023-03-02T19:22:46.223Z,35.75
2023-03-02T19:25:26.781Z,34.58
2023-03-02T19:27:53.834Z,35.53
2023-03-02T19:30:41.252Z,35.47
2023-03-02T19:33:42.268Z,32.55
2023-03-02T19:36:43.277Z,33.85
2023-03-02T19:39:44.250Z,35.65
2023-03-02T19:42:46.261Z,38.22
2023-03-02T19:45:47.315Z,49.88
2023-03-02T19:48:48.243Z,53.58
2023-03-02T19:51:49.267Z,45.78
2023-03-02T19:54:29.938Z,36.00
2023-03-02T19:56:56.924Z,34.92
2023-03-02T19:59:46.259Z,42.70
2023-03-02T20:02:47.345Z,32.88
2023-03-02T20:05:49.285Z,37.78
2023-03-02T20:08:30.243Z,37.55
2023-03-02T20:10:57.297Z,39.63
2023-03-02T20:13:44.244Z,39.97
2023-03-02T20:16:24.940Z,40.25
2023-03-02T20:18:52.790Z,41.42
2023-03-02T20:21:40.299Z,42.20
2023-03-02T20:24:20.933Z,39.97
2023-03-02T20:26:48.194Z,38.25
2023-03-02T20:29:35.281Z,35.88
2023-03-02T20:32:16.307Z,37.20
2023-03-02T20:35:03.297Z,36.65
2023-03-02T20:37:44.055Z,38.55
2023-03-02T20:40:31.279Z,38.50
2023-03-02T20:43:32.275Z,36.33
2023-03-02T20:46:38.318Z,35.15
2023-03-02T20:49:42.297Z,36.75
2023-03-02T20:52:43.302Z,36.75
2023-03-02T20:55:44.501Z,41.50
2023-03-02T20:58:47.296Z,39.53
2023-03-02T21:01:35.943Z,45.85
2023-03-02T21:04:23.373Z,41.60
2023-03-02T21:07:25.314Z,39.45
2023-03-02T21:10:14.863Z,35.72
2023-03-02T21:13:02.294Z,36.70
2023-03-02T21:16:05.317Z,35.58
2023-03-02T21:19:07.335Z,33.58
2023-03-02T21:22:02.307Z,36.45
2023-03-02T21:25:03.345Z,36.28
2023-03-02T21:27:44.733Z,36.47
2023-03-02T21:30:41.298Z,38.67
2023-03-02T21:33:22.012Z,38.45
2023-03-02T21:35:48.964Z,41.65
2023-03-02T21:38:36.318Z,40.25
2023-03-02T21:41:37.316Z,42.17
2023-03-02T21:44:38.348Z,35.70
2023-03-02T21:47:36.462Z,35.28
2023-03-02T21:50:28.329Z,33.63
2023-03-02T21:53:09.402Z,34.75
2023-03-02T21:55:36.946Z,38.72
2023-03-02T21:58:24.342Z,36.95
2023-03-02T22:01:25.322Z,34.58
2023-03-02T22:04:23.356Z,34.05
2023-03-02T22:09:17.111Z,31.45
2023-03-02T22:11:45.366Z,32.75
2023-03-02T22:14:34.342Z,33.78
2023-03-02T22:17:37.349Z,33.45
2023-03-02T22:20:40.093Z,34.05
2023-03-02T22:23:28.015Z,52.17
2023-03-02T22:29:14.360Z,34.38
2023-03-02T22:31:46.669Z,37.53
2023-03-02T22:34:16.862Z,34.72
2023-03-02T22:36:44.867Z,35.22
2023-03-02T22:39:17.300Z,30.73
2023-03-02T22:41:44.380Z,31.52
2023-03-02T22:44:31.332Z,28.63
2023-03-02T22:47:34.372Z,29.02
2023-03-02T22:50:29.943Z,28.75
2023-03-02T22:52:58.387Z,33.42
2023-03-02T22:55:39.007Z,33.38
2023-03-02T22:58:44.378Z,31.58
2023-03-02T23:01:25.999Z,32.70
2023-03-02T23:04:27.456Z,36.92
2023-03-02T23:07:18.702Z,32.30
2023-03-02T23:09:46.011Z,34.63
2023-03-02T23:12:20.724Z,33.70
2023-03-02T23:15:10.379Z,31.50
2023-03-02T23:18:12.368Z,30.77
2023-03-02T23:21:13.474Z,30.70
2023-03-02T23:24:14.401Z,28.65
2023-03-02T23:26:54.999Z,32.60
2023-03-02T23:29:22.122Z,30.95
2023-03-02T23:31:49.539Z,29.15
2023-03-02T23:34:16.676Z,30.70
2023-03-02T23:36:43.795Z,33.20
2023-03-02T23:39:30.402Z,34.22
2023-03-02T23:42:31.455Z,27.98
2023-03-02T23:45:33.395Z,31.42
2023-03-02T23:48:14.076Z,30.55
2023-03-02T23:50:41.126Z,29.88
2023-03-02T23:53:08.251Z,33.35
2023-03-02T23:55:35.912Z,32.25
2023-03-02T23:58:23.373Z,30.92
